Storoen, Sweden

11:04 AM CET on December 25, 2014 (GMT +0100)
Valhallav. Kalix | Change Station
CLOSE
Current Station
Personal Weather Station
Location: Kalix, NORRBOTTENS LäN
Elevation: 174 ft
Nearby Weather Stations

Elev 174 ft 65.86 °N, 23.15 °E | Updated 6 seconds ago

Scattered Clouds
Scattered Clouds
0.9 °F
Feels Like 1 °F
N
2.3
Wind Variable Wind from North
Gusts 2.3 mph

Today
High -- | Low -- °F
--% Chance of Precip.
Yesterday
High -- | Low -- °F
Precip. -- in
9:54 AM 1:00 PM
Waxing Crescent, 15% visible
Pressure 29.71 in
Visibility 6.2 miles
Clouds Scattered Clouds 12000 ft
Windchill 1 °F
Dew Point -3 °F
Humidity 84%
Rainfall 0.00 in
Snow Depth Not available.
UV 0 out of 12
Pollen Not available.
Air Quality Not available.
Flu Activity Not available.
METAR ESPA 250950Z AUTO 35002KT 9999NDV SCT120/// M20/M22 Q1006

More Conditions Fewer Conditions

Pressure 29.71 in
Visibility 6.2 miles
Clouds Scattered Clouds 12000 ft
Windchill 1 °F
Dew Point -3 °F
Humidity 84%
Rainfall 0.00 in
Snow Depth Not available.
UV 0 out of 12
Pollen Not available.
Air Quality Not available.
Flu Activity Not available.
METAR ESPA 250950Z AUTO 35002KT 9999NDV SCT120/// M20/M22 Q1006

More Conditions Fewer Conditions

10-Day Weather Forecast

Almanac

Astronomy

Dec. 25, 2014 Rise Set
Actual Time
Civil Twilight
Nautical Twilight
Astronomical Twilight
Moon
Length of Visible Light
Length of Day
Tomorrow will be .
, % of the Moon is Illuminated

Today's Extremes

Country Highs Country Lows

Community

WunderPhotos

Upload Photos

1,780,253 photos uploaded!

WunderBlogs® & News

Nearby

Air Quality

  Air Quality AQ Index Pollutant
Not available.

Snow Depth

Station Depth Elevation

Earthquake Activity

City Distance Mag. Time & Date
Minimum magnitude displayed is 2.5.

Coastal Water Temperatures

Place Temperature

Nearby Weather Stations